Time;durP1;ratioP1;P1;durP2;ratioP2;P2;SDS_P1;SDS_P2;PMS_P1;PMS_P2;Temp;Humidity;BMP_temperature;BMP_pressure;BME280_temperature;BME280_humidity;BME280_pressure;Samples;Min_cycle;Max_cycle;Signal;HPM_P1;HPM_P2
2023/03/23 00:01:21;;;;;;;7.10;2.83;;;13.30;51.00;;;8.86;80.00;95070.47;4973193;28;20022;-54
2023/03/23 00:03:53;;;;;;;4.60;3.40;;;13.30;51.10;;;8.79;80.13;95066.22;4986209;28;20018;-50
2023/03/23 00:06:20;;;;;;;4.70;3.13;;;13.20;51.20;;;8.78;79.91;95069.16;4972581;28;20116;-54
2023/03/23 00:08:56;;;;;;;5.63;3.33;;;13.20;51.90;;;8.73;80.24;95066.50;4986371;28;20017;-53
2023/03/23 00:11:30;;;;;;;4.60;2.65;;;13.20;51.50;;;8.69;81.18;95060.91;4981347;28;20023;-52
2023/03/23 00:14:02;;;;;;;3.58;2.80;;;13.10;51.50;;;8.65;81.57;95067.81;4979134;28;20435;-54
2023/03/23 00:16:32;;;;;;;5.13;3.03;;;13.10;51.70;;;8.63;81.85;95063.84;4987025;28;20030;-51
2023/03/23 00:19:14;;;;;;;4.88;2.50;;;13.00;51.80;;;8.55;82.21;95071.28;5004614;28;20057;-54
2023/03/23 00:21:43;;;;;;;3.25;2.08;;;13.00;52.00;;;8.49;82.39;95074.97;4992983;28;20499;-54
2023/03/23 00:24:18;;;;;;;4.70;2.70;;;13.00;51.90;;;8.49;82.67;95071.50;4988689;28;20120;-50
2023/03/23 00:26:51;;;;;;;4.82;3.05;;;12.90;52.10;;;8.50;82.63;95068.59;4981223;28;20110;-55
2023/03/23 00:29:22;;;;;;;4.35;2.70;;;12.90;52.20;;;8.46;82.98;95069.38;4986354;28;20128;-53
2023/03/23 00:31:49;;;;;;;5.68;3.15;;;12.90;52.20;;;8.41;83.47;95074.69;4991398;28;20500;-55
2023/03/23 00:34:20;;;;;;;3.75;2.42;;;12.90;52.20;;;8.31;84.08;95070.91;4972998;28;20109;-54
2023/03/23 00:36:53;;;;;;;5.75;2.80;;;12.80;52.30;;;8.33;84.47;95086.56;4990663;28;20030;-50
2023/03/23 00:39:19;;;;;;;4.55;2.50;;;12.80;52.40;;;8.28;84.36;95084.72;4982968;28;20113;-50
2023/03/23 00:41:47;;;;;;;5.35;2.58;;;12.80;52.50;;;8.20;84.43;95077.25;5001414;28;20029;-51
2023/03/23 00:44:16;;;;;;;3.15;2.28;;;12.70;52.60;;;8.26;84.66;95073.56;4998646;28;20018;-53
2023/03/23 00:46:44;;;;;;;4.38;2.60;;;12.80;52.70;;;8.24;85.23;95072.22;5000436;28;20112;-50
2023/03/23 00:49:17;;;;;;;9.40;2.70;;;12.70;52.80;;;8.15;85.06;95071.94;5002713;28;20024;-51
2023/03/23 00:51:44;;;;;;;4.25;2.17;;;12.70;52.90;;;8.16;85.85;95060.28;4988446;28;20099;-53
2023/03/23 00:54:11;;;;;;;3.17;2.45;;;12.70;52.90;;;8.19;85.49;95065.06;4972242;28;20057;-51
2023/03/23 00:56:39;;;;;;;5.18;2.58;;;12.60;53.00;;;8.11;85.54;95060.25;4988315;28;20431;-51
2023/03/23 00:59:05;;;;;;;3.88;2.40;;;12.60;53.10;;;8.19;85.02;95065.06;4979265;28;20519;-54
2023/03/23 01:01:34;;;;;;;3.15;2.67;;;12.60;53.20;;;8.20;85.22;95056.03;4980938;28;20036;-52
2023/03/23 01:04:00;;;;;;;4.55;2.50;;;12.60;53.30;;;8.19;84.76;95054.44;4984655;28;20026;-50
2023/03/23 01:06:39;;;;;;;2.90;2.40;;;12.60;53.30;;;8.19;83.85;95048.34;4988404;28;20049;-55
2023/03/23 01:09:14;;;;;;;3.10;2.38;;;12.60;53.50;;;8.27;84.08;95037.19;4989149;28;20018;-53
2023/03/23 01:11:43;;;;;;;3.58;2.28;;;12.60;53.40;;;8.23;84.83;95042.25;4982459;28;20108;-54
2023/03/23 01:14:11;;;;;;;2.47;2.08;;;12.60;53.40;;;8.24;84.88;95041.19;4982367;28;20042;-52
2023/03/23 01:16:37;;;;;;;3.08;2.30;;;12.60;54.00;;;8.22;84.37;95045.97;4995037;28;20467;-51
2023/03/23 01:19:04;;;;;;;3.58;2.20;;;12.60;53.40;;;8.28;84.13;95044.13;4992993;28;20100;-52
2023/03/23 01:21:30;;;;;;;4.20;2.50;;;12.60;53.50;;;8.29;84.12;95037.75;4993191;28;20120;-54
2023/03/23 01:23:56;;;;;;;3.47;2.50;;;12.70;53.50;;;8.25;82.97;95037.47;4994309;28;20100;-49
2023/03/23 01:26:27;;;;;;;7.65;2.40;;;12.70;53.80;;;8.27;82.81;95032.72;4982537;28;20117;-51
2023/03/23 01:28:54;;;;;;;3.22;2.47;;;12.70;53.50;;;8.34;83.18;95035.91;4994052;28;20028;-50
2023/03/23 01:31:25;;;;;;;4.78;2.55;;;12.70;53.50;;;8.33;80.74;95036.94;4988889;28;20026;-49
2023/03/23 01:33:55;;;;;;;3.47;2.35;;;12.70;53.50;;;8.44;82.04;95035.16;4984286;28;20018;-52
2023/03/23 01:36:32;;;;;;;3.28;2.20;;;12.70;53.50;;;8.38;82.41;95019.44;4988153;28;20400;-50
2023/03/23 01:39:04;;;;;;;2.80;2.30;;;12.80;53.60;;;8.49;82.16;95024.53;4986410;28;20021;-49
2023/03/23 01:41:32;;;;;;;2.20;2.00;;;12.80;53.60;;;8.48;82.37;95017.63;4976552;28;20026;-53
2023/03/23 01:44:05;;;;;;;4.50;2.15;;;12.80;53.40;;;8.46;82.66;95025.06;4987352;28;20091;-52
2023/03/23 01:46:35;;;;;;;5.88;1.83;;;12.90;53.60;;;8.44;81.55;95029.03;4980734;28;20033;-51
2023/03/23 01:49:15;;;;;;;3.28;2.38;;;12.80;53.50;;;8.53;81.66;95033.56;4980981;28;20037;-51
2023/03/23 01:51:52;;;;;;;3.60;2.30;;;12.90;53.60;;;8.58;80.62;95036.19;4985065;28;20058;-50
2023/03/23 01:54:22;;;;;;;4.10;2.50;;;12.90;54.10;;;8.54;81.26;95042.31;5005508;28;20095;-50
2023/03/23 01:57:13;;;;;;;2.75;2.17;;;13.00;53.50;;;8.63;80.53;95045.25;4984182;28;20088;-54
2023/03/23 01:59:52;;;;;;;3.30;2.15;;;13.00;53.50;;;8.66;80.43;95044.72;4975256;28;20029;-50
2023/03/23 02:02:23;;;;;;;3.78;2.00;;;13.00;53.40;;;8.68;81.12;95050.53;4976337;28;20057;-51
2023/03/23 02:04:52;;;;;;;2.80;2.10;;;13.10;53.40;;;8.65;80.13;95051.06;4983829;28;20080;-55
2023/03/23 02:07:23;;;;;;;3.72;1.80;;;13.10;53.30;;;8.70;81.19;95057.19;4989948;28;20061;-53
2023/03/23 02:09:51;;;;;;;2.90;2.17;;;13.10;53.30;;;8.71;80.93;95058.81;4984755;28;20105;-52
2023/03/23 02:12:18;;;;;;;3.05;1.85;;;13.10;53.30;;;8.67;82.74;95062.22;4988032;28;20476;-52
2023/03/23 02:14:44;;;;;;;2.88;2.10;;;13.10;53.30;;;8.65;82.51;95057.22;4982328;28;20050;-50
2023/03/23 02:17:54;;;;;;;4.00;2.33;;;13.10;53.40;;;8.74;80.82;95063.59;5005305;28;21566;-49
2023/03/23 02:21:13;;;;;;;4.45;2.30;;;13.20;53.50;;;8.81;80.28;95063.31;4981179;28;20057;-51
2023/03/23 02:24:26;;;;;;;2.90;1.88;;;13.20;53.40;;;8.88;80.75;95086.94;4967500;28;20068;-52
2023/03/23 02:27:16;;;;;;;2.55;2.00;;;13.20;53.40;;;8.91;80.63;95081.91;4981138;28;20550;-52
2023/03/23 02:30:39;;;;;;;3.15;2.40;;;13.30;53.40;;;8.96;80.78;95092.53;4985155;28;20030;-51
2023/03/23 02:34:05;;;;;;;2.72;1.95;;;13.30;53.40;;;8.94;80.69;95078.72;4933964;29;20027;-50
2023/03/23 02:37:09;;;;;;;3.38;2.08;;;13.30;53.40;;;8.95;82.24;95053.72;4934734;28;20061;-51
2023/03/23 02:39:47;;;;;;;;;;;13.30;53.40;;;8.96;82.59;95065.97;4974747;28;20045;-53
2023/03/23 02:42:31;;;;;;;2.65;2.03;;;13.30;53.00;;;8.93;82.85;95047.91;4982509;28;19906;-55
2023/03/23 02:45:07;;;;;;;3.65;2.10;;;13.40;53.90;;;8.91;83.36;95041.28;4987035;28;20113;-49
2023/03/23 02:47:39;;;;;;;3.03;2.25;;;13.30;53.40;;;8.93;82.88;95045.25;4998779;28;20104;-52
2023/03/23 02:50:14;;;;;;;3.03;2.53;;;13.30;53.40;;;8.92;83.13;95025.06;4985120;28;20092;-54
2023/03/23 02:52:45;;;;;;;3.20;2.30;;;13.30;53.50;;;8.87;83.93;95026.91;5002157;28;20025;-50
2023/03/23 02:55:13;;;;;;;3.28;2.08;;;13.30;53.70;;;8.82;83.67;95033.03;4996087;28;20109;-52
2023/03/23 02:57:40;;;;;;;3.70;2.10;;;13.30;53.70;;;8.86;82.25;95027.97;4990858;28;20017;-51
2023/03/23 03:00:13;;;;;;;2.63;1.85;;;13.30;53.70;;;8.90;81.58;95023.72;4991404;28;20022;-50
2023/03/23 03:02:54;;;;;;;3.38;2.38;;;13.30;53.80;;;8.96;81.99;95022.66;4979160;28;20053;-51
2023/03/23 03:06:12;;;;;;;2.70;2.20;;;13.30;53.90;;;8.94;81.78;95022.94;4979873;28;20064;-51
2023/03/23 03:09:26;;;;;;;2.60;1.90;;;13.30;53.90;;;8.95;82.26;95016.53;4979454;28;20026;-54
2023/03/23 03:12:10;;;;;;;3.67;2.05;;;13.30;53.90;;;8.92;82.02;95014.41;4983201;28;20029;-52
2023/03/23 03:15:23;;;;;;;2.70;1.98;;;13.30;53.90;;;8.93;81.87;95004.59;4998387;28;20092;-54
2023/03/23 03:18:12;;;;;;;2.50;2.00;;;13.30;53.90;;;8.89;81.05;95001.69;4981796;28;20069;-50
2023/03/23 03:20:53;;;;;;;2.30;1.85;;;13.30;53.80;;;8.92;80.36;95003.00;4980649;28;20064;-50
2023/03/23 03:23:24;;;;;;;3.03;2.10;;;13.30;53.80;;;8.92;78.32;95003.78;4988502;28;20026;-50
2023/03/23 03:25:57;;;;;;;3.22;2.13;;;13.30;53.70;;;9.02;79.12;94998.50;4984151;28;20496;-49
2023/03/23 03:28:26;;;;;;;3.45;2.30;;;13.30;53.70;;;9.03;78.11;94999.28;5001013;28;20495;-51
2023/03/23 03:31:00;;;;;;;2.55;1.95;;;13.30;53.60;;;9.05;79.18;94997.13;4998923;28;20120;-51
2023/03/23 03:33:31;;;;;;;2.70;2.20;;;13.40;53.70;;;9.05;78.79;94997.13;4979104;28;20096;-53
2023/03/23 03:36:06;;;;;;;3.88;2.42;;;13.40;53.60;;;9.04;80.24;94988.38;5003298;28;20021;-55
2023/03/23 03:38:44;;;;;;;2.75;1.75;;;13.40;53.60;;;8.97;79.79;94987.88;4988313;28;20393;-53
2023/03/23 03:41:11;;;;;;;4.45;2.35;;;13.40;53.60;;;8.93;80.24;94962.91;4974834;28;20204;-54
2023/03/23 03:43:36;;;;;;;2.90;2.10;;;13.40;53.50;;;8.96;77.53;94974.84;4993007;28;20024;-50
2023/03/23 03:46:03;;;;;;;4.68;2.35;;;13.40;53.40;;;9.04;77.75;94982.28;4980051;28;20018;-54
2023/03/23 03:48:28;;;;;;;2.15;1.90;;;13.40;53.40;;;9.12;76.90;94973.75;4991660;28;20025;-52
2023/03/23 03:50:56;;;;;;;2.55;2.13;;;13.40;53.40;;;9.18;76.78;94977.19;4979710;28;20031;-51
2023/03/23 03:53:23;;;;;;;2.28;1.60;;;13.50;53.40;;;9.23;72.83;94983.28;4982819;28;20112;-51
2023/03/23 03:55:51;;;;;;;1.70;1.52;;;13.50;53.20;;;9.39;72.45;94980.56;4975830;28;20127;-50
2023/03/23 03:58:17;;;;;;;2.40;1.80;;;13.60;53.10;;;9.50;72.61;94982.94;4990832;28;20040;-50
2023/03/23 04:00:47;;;;;;;3.45;1.98;;;13.70;53.00;;;9.57;73.35;94976.53;4981873;28;20132;-55
2023/03/23 04:03:14;;;;;;;3.47;2.13;;;13.80;52.90;;;9.58;74.00;94981.56;4988257;28;20028;-53
2023/03/23 04:05:41;;;;;;;3.97;1.60;;;13.80;52.80;;;9.58;74.20;94975.47;4987181;28;20023;-52
2023/03/23 04:08:07;;;;;;;2.42;1.75;;;13.90;52.70;;;9.55;74.39;94976.00;4989215;28;20467;-50
2023/03/23 04:10:33;;;;;;;2.83;1.85;;;13.90;52.60;;;9.54;74.46;94972.53;4986652;28;20469;-51
2023/03/23 04:13:00;;;;;;;2.67;1.70;;;13.90;52.60;;;9.53;74.64;94978.13;4981709;28;20026;-52
2023/03/23 04:15:26;;;;;;;2.63;1.77;;;13.90;52.50;;;9.60;73.75;94982.09;4992095;28;20065;-51
2023/03/23 04:17:52;;;;;;;2.38;1.77;;;13.90;52.50;;;9.64;72.91;94987.66;4990664;28;20025;-50
2023/03/23 04:20:19;;;;;;;2.25;1.90;;;13.90;52.30;;;9.67;73.40;94987.13;4988078;28;20115;-49
2023/03/23 04:22:48;;;;;;;2.33;1.77;;;14.00;52.30;;;9.66;73.53;94981.00;4982958;28;20095;-52
2023/03/23 04:25:20;;;;;;;2.20;2.00;;;14.00;52.90;;;9.65;74.22;94981.25;4984696;28;20429;-51
2023/03/23 04:27:52;;;;;;;4.07;1.90;;;14.00;52.30;;;9.64;73.15;94967.19;4985599;28;20543;-50
2023/03/23 04:30:21;;;;;;;3.55;1.88;;;14.00;52.20;;;9.66;73.18;94974.91;4973437;28;20049;-51
2023/03/23 04:32:50;;;;;;;2.30;1.60;;;14.00;52.20;;;9.68;73.19;94978.06;4984220;28;20463;-52
2023/03/23 04:35:19;;;;;;;2.00;1.70;;;14.00;52.10;;;9.69;71.59;94974.34;4987711;28;20053;-50
2023/03/23 04:37:47;;;;;;;2.85;1.73;;;14.10;52.10;;;9.76;71.91;94979.38;4984277;28;20080;-50
2023/03/23 04:40:15;;;;;;;3.08;1.40;;;14.10;52.00;;;9.80;71.58;94983.06;4985783;28;20105;-53
2023/03/23 04:42:46;;;;;;;2.00;1.65;;;14.10;52.00;;;9.82;72.27;94979.06;4989237;28;20025;-54
2023/03/23 04:45:22;;;;;;;3.50;1.70;;;14.10;52.00;;;9.81;73.18;94979.31;4987726;28;20057;-51
2023/03/23 04:47:57;;;;;;;2.03;1.55;;;14.20;52.10;;;9.77;71.94;94976.41;4980343;28;20129;-51
2023/03/23 04:50:32;;;;;;;1.83;1.23;;;14.10;51.90;;;9.75;70.11;94978.59;4985366;28;20021;-50
2023/03/23 04:53:03;;;;;;;1.65;1.50;;;14.10;51.70;;;9.81;70.91;94980.16;4990441;28;20036;-51
2023/03/23 04:55:36;;;;;;;3.85;1.38;;;14.20;51.70;;;9.88;70.07;94970.00;4983915;28;20053;-53
2023/03/23 04:58:05;;;;;;;2.65;1.38;;;14.20;51.60;;;9.93;70.27;94974.47;4986455;28;20032;-54
2023/03/23 05:00:36;;;;;;;4.47;1.52;;;14.20;51.60;;;9.93;69.45;94979.78;4986644;28;20045;-54
2023/03/23 05:03:02;;;;;;;6.45;3.28;;;14.30;51.50;;;9.95;69.27;94977.66;4984331;28;20029;-52
2023/03/23 05:05:30;;;;;;;2.53;1.80;;;14.30;51.40;;;9.98;69.22;94979.00;4987482;28;20024;-51
2023/03/23 05:07:57;;;;;;;2.13;1.63;;;14.30;51.30;;;10.03;69.17;94978.94;4986925;28;20021;-51
2023/03/23 05:10:23;;;;;;;2.78;1.38;;;14.40;51.30;;;10.04;68.92;94984.00;4985585;28;20021;-50
2023/03/23 05:12:49;;;;;;;2.38;1.38;;;14.40;51.20;;;10.04;68.73;94978.69;4982278;28;20227;-54
2023/03/23 05:17:48;;;;;;;1.30;1.20;;;14.40;51.00;;;10.17;66.53;94979.94;5015577;28;20119;-49
2023/03/23 05:20:22;;;;;;;1.67;1.08;;;14.50;51.00;;;10.25;68.08;94974.03;5029885;28;20036;-52
2023/03/23 05:22:49;;;;;;;2.38;1.52;;;14.50;50.90;;;10.30;66.77;94979.34;5018114;28;20123;-50
2023/03/23 05:25:22;;;;;;;3.35;1.40;;;14.60;50.80;;;10.37;66.51;94979.84;5022221;28;20542;-51
2023/03/23 05:27:52;;;;;;;;;;;14.60;50.70;;;10.42;66.14;94992.31;5006490;28;20468;-49
2023/03/23 05:30:20;;;;;;;3.85;1.38;;;14.60;50.60;;;10.42;66.18;94987.78;4999526;28;19912;-49
2023/03/23 05:32:51;;;;;;;1.77;1.30;;;14.70;50.40;;;10.46;66.05;94995.19;5001243;28;20021;-51
2023/03/23 05:35:20;;;;;;;3.50;1.73;;;14.80;50.30;;;10.45;67.11;94989.09;4991923;28;20627;-49
2023/03/23 05:37:46;;;;;;;3.35;1.42;;;14.80;50.30;;;10.44;67.32;94992.84;4999259;28;20068;-54
2023/03/23 05:40:13;;;;;;;1.52;1.10;;;14.80;50.20;;;10.42;67.05;94994.97;4995612;28;20021;-51
2023/03/23 05:42:41;;;;;;;4.85;1.67;;;14.80;50.10;;;10.43;68.33;94996.53;5000864;28;20061;-50
2023/03/23 05:45:13;;;;;;;2.42;1.50;;;14.80;50.20;;;10.40;67.84;95002.44;5008221;28;20084;-50
2023/03/23 05:47:40;;;;;;;2.20;1.58;;;14.80;50.20;;;10.41;67.41;95009.38;4998262;28;20033;-49
2023/03/23 05:50:10;;;;;;;3.47;1.63;;;14.80;50.10;;;10.42;67.54;95011.72;4999511;28;20028;-50
2023/03/23 05:52:37;;;;;;;3.33;1.60;;;14.90;50.10;;;10.40;68.11;95005.91;5002650;28;20033;-49
2023/03/23 05:55:05;;;;;;;1.63;1.42;;;14.90;50.10;;;10.45;68.32;95012.25;4995338;28;20053;-49
2023/03/23 05:57:32;;;;;;;2.72;1.45;;;14.90;50.10;;;10.47;65.83;95012.78;5001298;28;20060;-49
2023/03/23 05:59:58;;;;;;;5.03;1.80;;;14.90;50.00;;;10.50;66.46;95009.53;4996019;28;20028;-50
2023/03/23 06:02:29;;;;;;;2.45;1.42;;;14.90;49.80;;;10.52;68.25;95015.41;5005869;28;20017;-49
2023/03/23 06:04:57;;;;;;;2.42;1.50;;;15.00;49.90;;;10.53;66.88;95016.97;4997789;28;20173;-50
2023/03/23 06:07:26;;;;;;;3.20;1.27;;;15.00;49.80;;;10.53;65.69;95020.47;5013156;28;20037;-49
2023/03/23 06:09:53;;;;;;;2.35;1.60;;;15.00;49.70;;;10.58;66.01;95025.72;4994382;28;20030;-50
2023/03/23 06:12:20;;;;;;;3.53;1.70;;;15.00;49.60;;;10.63;66.97;95028.38;5000339;28;20034;-49
2023/03/23 06:14:47;;;;;;;1.45;1.30;;;15.10;49.60;;;10.71;65.33;95016.31;5002192;28;20497;-49
2023/03/23 06:17:17;;;;;;;1.65;1.30;;;15.10;49.60;;;10.79;65.05;95021.06;4999564;28;20049;-51
2023/03/23 06:19:46;;;;;;;1.45;1.30;;;15.20;49.50;;;10.81;67.17;95018.09;4999920;28;20022;-50
2023/03/23 06:22:12;;;;;;;2.13;1.45;;;15.20;49.50;;;10.85;66.71;95019.94;5007524;28;20048;-50
2023/03/23 06:24:38;;;;;;;2.63;1.48;;;15.30;49.40;;;10.94;64.74;95027.34;4998051;28;20459;-50
2023/03/23 06:27:04;;;;;;;4.13;1.00;;;15.40;49.40;;;11.06;63.21;95019.75;5007347;28;20373;-50
2023/03/23 06:29:31;;;;;;;2.25;1.40;;;15.40;49.20;;;11.20;62.98;95023.34;5000972;28;20026;-53
2023/03/23 06:32:02;;;;;;;1.50;1.40;;;15.60;49.10;;;11.34;61.97;95026.97;5011788;28;20063;-49
2023/03/23 06:34:30;;;;;;;2.30;1.20;;;15.70;48.90;;;11.48;61.77;95027.06;5003431;28;20472;-50
2023/03/23 06:36:58;;;;;;;2.53;1.30;;;15.80;48.60;;;11.61;61.75;95030.94;5007779;28;20038;-51
2023/03/23 06:39:24;;;;;;;2.00;1.33;;;16.00;48.50;;;11.71;60.73;95028.13;5003328;28;20040;-49
2023/03/23 06:41:51;;;;;;;2.15;1.10;;;16.10;48.80;;;11.85;61.59;95027.50;4999464;28;20036;-50
2023/03/23 06:44:17;;;;;;;1.63;1.40;;;16.30;48.10;;;11.97;61.23;95027.84;5003436;28;20021;-51
2023/03/23 06:46:43;;;;;;;2.85;1.50;;;16.50;47.90;;;12.05;61.10;95024.56;5007001;28;20132;-50
2023/03/23 06:49:10;;;;;;;2.47;1.58;;;16.60;47.80;;;12.17;60.24;95032.16;4994729;28;20112;-51
2023/03/23 06:51:37;;;;;;;2.67;1.90;;;16.80;47.50;;;12.29;58.67;95021.84;5010152;28;20061;-51
2023/03/23 06:54:04;;;;;;;3.22;1.15;;;17.00;47.20;;;12.43;58.78;95019.22;4996355;28;20025;-49
2023/03/23 06:56:31;;;;;;;2.40;1.50;;;17.20;47.00;;;12.59;58.44;95022.47;5006887;28;20069;-50
2023/03/23 06:58:57;;;;;;;2.83;1.70;;;17.30;46.70;;;12.75;57.75;95023.81;5000411;28;20021;-51
2023/03/23 07:01:23;;;;;;;3.90;1.52;;;17.50;46.50;;;12.86;57.80;95027.94;5005784;28;20021;-50
2023/03/23 07:03:49;;;;;;;4.15;1.63;;;17.60;46.30;;;12.99;57.40;95031.72;5002061;28;20045;-51
2023/03/23 07:06:16;;;;;;;2.88;1.70;;;17.80;46.00;;;13.09;56.26;95033.44;4996609;28;20444;-50
2023/03/23 07:08:42;;;;;;;4.00;1.60;;;17.90;45.70;;;13.22;56.64;95031.88;4996562;28;20028;-50
2023/03/23 07:11:09;;;;;;;2.97;1.33;;;18.00;45.50;;;13.37;56.47;95032.44;4994283;28;20049;-51
2023/03/23 07:13:36;;;;;;;2.90;1.45;;;18.20;45.40;;;13.48;56.04;95040.28;4997097;28;20037;-50
2023/03/23 07:16:06;;;;;;;3.65;1.50;;;18.30;45.10;;;13.63;55.66;95034.63;5004391;28;20049;-50
2023/03/23 07:18:32;;;;;;;1.92;1.50;;;18.60;44.90;;;13.80;55.81;95039.41;4998652;28;20390;-50
2023/03/23 07:20:59;;;;;;;1.85;1.45;;;18.70;44.60;;;13.97;54.79;95044.94;4982504;28;20025;-50
2023/03/23 07:23:25;;;;;;;2.20;1.80;;;18.90;44.40;;;14.13;53.57;95050.78;4999217;28;20021;-50
2023/03/23 07:25:52;;;;;;;2.13;1.38;;;19.10;44.00;;;14.30;54.08;95052.84;4998547;28;20082;-50
2023/03/23 07:28:18;;;;;;;3.55;1.70;;;19.40;43.80;;;14.46;52.97;95050.63;5000150;28;20040;-50
2023/03/23 07:30:44;;;;;;;2.90;1.80;;;19.50;43.40;;;14.60;52.69;95045.25;5010989;28;20035;-48
2023/03/23 07:33:11;;;;;;;2.38;1.70;;;19.70;43.20;;;14.68;51.30;95049.91;4999185;28;20029;-50
2023/03/23 07:35:38;;;;;;;2.22;1.55;;;19.90;42.80;;;14.78;52.02;95050.47;5009499;28;20039;-50
2023/03/23 07:38:06;;;;;;;3.20;1.63;;;20.00;42.50;;;14.87;51.06;95047.84;4985274;28;20057;-50
2023/03/23 07:40:33;;;;;;;5.35;1.65;;;20.10;42.20;;;14.89;50.84;95056.38;4999849;28;20049;-52
2023/03/23 07:43:01;;;;;;;4.05;1.60;;;20.20;41.90;;;14.95;49.22;95063.22;5008226;28;20374;-52
2023/03/23 07:45:28;;;;;;;5.95;1.70;;;20.30;41.40;;;15.08;49.69;95063.47;4999964;28;20051;-53
2023/03/23 07:47:54;;;;;;;2.50;1.70;;;20.40;41.10;;;15.16;50.02;95068.88;5003596;28;20032;-52
2023/03/23 07:50:23;;;;;;;2.85;2.10;;;20.50;40.90;;;15.32;49.64;95074.66;5000280;28;20048;-48
2023/03/23 07:52:53;;;;;;;2.42;1.60;;;20.60;40.80;;;15.45;50.04;95076.47;4998757;28;20026;-48
2023/03/23 07:55:19;;;;;;;1.73;1.50;;;20.60;40.70;;;15.48;48.86;95075.88;5002097;28;20025;-48
2023/03/23 07:57:48;;;;;;;7.05;2.00;;;20.70;40.60;;;15.47;49.57;95078.84;5005587;28;20575;-48
2023/03/23 08:00:22;;;;;;;2.38;1.70;;;20.70;40.40;;;15.49;49.90;95076.66;4992371;28;20032;-50
2023/03/23 08:02:55;;;;;;;3.90;1.80;;;20.70;40.40;;;15.48;49.05;95075.06;5005225;28;20037;-48
2023/03/23 08:05:21;;;;;;;2.67;1.98;;;20.70;40.20;;;15.36;49.26;95072.16;5002052;28;20510;-48
2023/03/23 08:07:49;;;;;;;5.68;2.00;;;20.70;40.10;;;15.42;49.46;95068.25;4999023;28;20033;-48
2023/03/23 08:10:17;;;;;;;6.65;2.10;;;20.70;40.00;;;15.49;49.35;95066.72;5000514;28;20018;-49
2023/03/23 08:12:46;;;;;;;4.47;1.98;;;20.70;40.00;;;15.47;49.81;95068.13;4999503;28;20025;-50
2023/03/23 08:15:14;;;;;;;4.07;1.88;;;20.70;39.80;;;15.54;49.81;95073.03;5000427;28;20029;-50
2023/03/23 08:17:42;;;;;;;2.97;1.92;;;20.80;39.80;;;15.55;48.85;95071.97;5008809;28;20120;-48
2023/03/23 08:20:13;;;;;;;3.03;1.77;;;20.70;39.80;;;15.59;49.85;95072.91;4999788;28;20124;-49
2023/03/23 08:22:53;;;;;;;5.00;1.60;;;20.70;39.80;;;15.69;49.27;95078.84;4998318;28;20037;-50
2023/03/23 08:25:20;;;;;;;3.35;2.05;;;20.70;39.80;;;15.76;50.36;95082.97;5004884;28;20029;-50
2023/03/23 08:27:46;;;;;;;3.15;2.05;;;20.80;39.80;;;15.79;49.96;95085.81;4995874;28;20156;-50
2023/03/23 08:30:19;;;;;;;2.22;1.80;;;20.80;39.80;;;15.64;48.67;95078.94;4999872;28;20108;-50
2023/03/23 08:32:47;;;;;;;2.53;1.73;;;20.80;39.60;;;15.68;49.28;95082.63;5001392;28;20033;-50
2023/03/23 08:35:15;;;;;;;2.90;1.90;;;20.80;39.40;;;15.74;49.41;95072.56;4997143;28;20045;-52
2023/03/23 08:37:43;;;;;;;2.70;2.03;;;20.90;39.40;;;15.82;48.19;95073.69;5006409;28;20151;-52
2023/03/23 08:40:14;;;;;;;4.90;1.90;;;21.00;39.10;;;15.98;47.98;95079.44;4996181;28;20025;-50
2023/03/23 08:42:43;;;;;;;3.90;1.80;;;21.20;39.00;;;16.15;48.39;95074.91;4980585;28;20032;-50
2023/03/23 08:45:16;;;;;;;4.53;2.33;;;21.40;38.90;;;16.31;47.76;95085.22;4991788;28;20039;-51
2023/03/23 08:47:43;;;;;;;;;;;21.50;38.70;;;16.38;47.06;95083.66;5003419;28;20132;-53
2023/03/23 08:50:17;;;;;;;4.57;1.65;;;21.60;38.80;;;16.59;47.47;95083.06;4998162;28;20000;-48
2023/03/23 08:52:44;;;;;;;6.47;2.10;;;21.80;38.50;;;16.61;45.70;95086.25;4998320;28;20025;-50
2023/03/23 08:55:11;;;;;;;4.80;1.90;;;21.90;38.00;;;16.49;45.28;95092.22;5001547;28;20021;-50
2023/03/23 08:57:37;;;;;;;4.45;2.13;;;22.10;37.70;;;16.56;45.84;95100.63;4997898;28;20048;-53
2023/03/23 09:00:15;;;;;;;8.75;2.10;;;22.10;37.40;;;16.50;45.60;95101.88;5003313;28;20026;-51
2023/03/23 09:02:42;;;;;;;3.40;2.03;;;22.10;37.00;;;16.59;45.13;95109.94;5005107;28;20066;-51
2023/03/23 09:05:10;;;;;;;2.80;1.77;;;22.10;36.90;;;16.64;45.48;95107.91;4999845;28;20187;-51
2023/03/23 09:07:41;;;;;;;2.10;1.70;;;22.20;36.90;;;16.81;45.37;95114.44;4998074;28;20041;-52
2023/03/23 09:10:09;;;;;;;3.25;2.10;;;22.30;36.80;;;16.93;45.25;95111.13;5001314;28;20034;-50
2023/03/23 09:12:35;;;;;;;3.55;1.83;;;22.30;36.70;;;17.04;44.96;95107.78;5003548;28;20072;-51
2023/03/23 09:15:08;;;;;;;3.15;1.88;;;22.30;36.70;;;17.08;44.66;95113.34;5001799;28;20021;-52
2023/03/23 09:17:44;;;;;;;4.38;2.00;;;22.30;36.50;;;17.05;44.11;95117.47;4998895;28;20643;-48
2023/03/23 09:20:15;;;;;;;3.25;2.40;;;22.40;36.40;;;17.00;44.44;95116.81;5002806;28;20029;-48
2023/03/23 09:22:46;;;;;;;2.03;1.77;;;22.40;36.20;;;17.01;44.30;95121.09;5008547;28;20040;-50
2023/03/23 09:25:20;;;;;;;5.45;1.70;;;22.40;36.10;;;17.14;44.63;95117.44;4998440;28;20037;-48
2023/03/23 09:27:53;;;;;;;1.60;1.50;;;22.50;36.20;;;17.11;43.62;95126.19;5006596;28;20485;-49
2023/03/23 09:30:20;;;;;;;3.40;1.58;;;22.50;36.00;;;17.15;43.32;95126.34;4991907;28;20040;-48
2023/03/23 09:32:48;;;;;;;1.85;1.60;;;22.50;35.80;;;17.15;43.20;95129.81;4997011;28;20021;-48
2023/03/23 09:35:16;;;;;;;2.97;1.58;;;22.40;35.60;;;17.17;43.18;95116.03;4999479;28;20035;-49
2023/03/23 09:37:44;;;;;;;2.10;1.35;;;22.40;35.60;;;17.19;43.18;95122.69;5009478;28;20049;-49
2023/03/23 09:40:27;;;;;;;2.55;1.75;;;22.40;35.60;;;17.23;43.11;95128.22;4999295;28;20025;-48
2023/03/23 09:43:58;;;;;;;3.20;1.73;;;22.40;35.50;;;17.21;43.09;95133.13;5000871;28;20029;-48
2023/03/23 09:46:54;;;;;;;1.63;1.52;;;22.30;35.50;;;17.12;43.18;95122.38;4996207;28;20025;-51
2023/03/23 09:49:34;;;;;;;2.05;1.52;;;22.40;35.30;;;17.02;43.02;95122.69;5006568;28;20039;-51
2023/03/23 09:52:15;;;;;;;2.28;1.73;;;22.40;35.20;;;17.08;43.71;95132.19;4995133;28;20030;-54
2023/03/23 09:54:50;;;;;;;3.72;1.60;;;22.50;35.10;;;17.14;43.11;95141.66;4998712;28;20040;-49
2023/03/23 09:57:41;;;;;;;4.13;1.77;;;22.60;35.00;;;17.11;42.57;95140.41;5003197;28;20034;-50
2023/03/23 10:00:39;;;;;;;5.82;1.70;;;22.70;34.80;;;17.24;42.18;95138.69;4994540;28;20030;-50
2023/03/23 10:03:20;;;;;;;2.28;1.70;;;22.80;34.60;;;17.29;42.30;95148.47;5000018;28;20036;-50
2023/03/23 10:05:55;;;;;;;2.55;1.30;;;22.90;34.20;;;17.16;41.57;95150.22;4988763;28;20029;-52
2023/03/23 10:08:27;;;;;;;4.55;1.48;;;22.90;33.90;;;16.81;42.15;95152.09;5000384;28;20107;-53
2023/03/23 10:11:04;;;;;;;2.05;1.40;;;23.00;33.40;;;16.97;42.49;95161.28;4992624;28;20069;-52
2023/03/23 10:13:38;;;;;;;3.97;1.58;;;22.90;33.30;;;17.09;42.64;95168.75;4994008;28;20072;-50
2023/03/23 10:16:14;;;;;;;3.85;1.63;;;22.80;33.40;;;16.94;42.68;95171.91;5007477;28;20045;-57
2023/03/23 10:19:25;;;;;;;3.03;1.67;;;22.80;33.40;;;17.11;44.43;95171.94;4982835;28;20104;-56
2023/03/23 10:22:03;;;;;;;2.20;1.80;;;22.60;33.90;;;17.22;49.44;95167.78;4983289;28;20040;-58
2023/03/23 10:24:54;;;;;;;3.28;1.42;;;22.60;34.80;;;17.18;51.71;95174.94;5001067;28;20115;-57
2023/03/23 10:27:30;;;;;;;2.25;1.58;;;22.50;35.80;;;16.92;49.14;95169.50;4990415;28;20511;-57
2023/03/23 10:30:29;;;;;;;2.75;1.60;;;22.30;36.00;;;16.86;47.79;95158.13;4999113;28;20033;-58
2023/03/23 10:33:22;;;;;;;2.03;1.63;;;22.10;36.30;;;16.70;47.30;95153.47;5004257;28;20036;-57
2023/03/23 10:36:00;;;;;;;4.03;1.67;;;21.90;36.40;;;16.59;47.69;95153.75;4998473;28;20060;-55
2023/03/23 10:38:53;;;;;;;3.47;1.70;;;21.80;36.50;;;16.66;47.83;95153.28;5003876;28;20037;-56
2023/03/23 10:41:20;;;;;;;3.85;1.77;;;21.80;36.60;;;16.74;47.25;95157.91;5004502;28;20025;-57
2023/03/23 10:43:52;;;;;;;2.15;1.70;;;21.80;36.50;;;16.62;45.89;95152.34;5000383;28;20040;-59
2023/03/23 10:47:02;;;;;;;3.83;1.50;;;21.90;36.40;;;16.81;46.81;95157.47;4989925;28;20469;-53
2023/03/23 10:49:49;;;;;;;4.25;1.60;;;22.00;36.40;;;16.95;46.99;95152.72;5008113;28;20037;-57